Time;durP1;ratioP1;P1;durP2;ratioP2;P2;SDS_P1;SDS_P2;PMS_P1;PMS_P2;Temp;Humidity;BMP_temperature;BMP_pressure;BME280_temperature;BME280_humidity;BME280_pressure;Samples;Min_cycle;Max_cycle;Signal;HPM_P1;HPM_P2
2021/07/02 00:00:55;;;;;;;1.87;1.50;;;21.80;99.90;;;;;;5116972;28;20557;-71
2021/07/02 00:03:20;;;;;;;1.80;1.60;;;21.80;99.90;;;;;;5115598;28;20649;-71
2021/07/02 00:05:46;;;;;;;1.77;1.60;;;21.70;99.90;;;;;;5116736;28;20199;-68
2021/07/02 00:08:12;;;;;;;1.70;1.60;;;21.70;99.90;;;;;;5115417;28;20179;-70
2021/07/02 00:10:37;;;;;;;1.70;1.60;;;21.60;99.90;;;;;;5116683;28;20279;-67
2021/07/02 00:13:03;;;;;;;1.50;1.40;;;21.60;99.90;;;;;;5115278;28;20176;-68
2021/07/02 00:15:29;;;;;;;2.40;1.67;;;21.50;99.90;;;;;;5116284;28;20224;-68
2021/07/02 00:17:54;;;;;;;1.57;1.47;;;21.50;99.90;;;;;;5115164;28;20262;-67
2021/07/02 00:20:20;;;;;;;2.40;1.47;;;21.50;99.90;;;;;;5116509;28;20691;-68
2021/07/02 00:22:45;;;;;;;2.43;2.23;;;21.50;99.90;;;;;;5116378;28;20633;-67
2021/07/02 00:25:12;;;;;;;1.87;1.67;;;21.40;99.90;;;;;;5116255;28;20210;-68
2021/07/02 00:27:37;;;;;;;1.80;1.70;;;21.40;99.90;;;;;;5116409;28;20172;-68
2021/07/02 00:30:04;;;;;;;1.77;1.67;;;21.30;99.90;;;;;;5115837;28;20488;-70
2021/07/02 00:32:30;;;;;;;1.80;1.60;;;21.30;99.90;;;;;;5115593;28;20236;-67
2021/07/02 00:34:55;;;;;;;2.20;1.70;;;21.20;99.90;;;;;;5114634;28;20569;-70
2021/07/02 00:37:21;;;;;;;1.97;1.80;;;21.20;99.90;;;;;;5116218;28;20171;-68
2021/07/02 00:39:47;;;;;;;1.53;1.43;;;21.20;99.90;;;;;;5114609;28;20252;-71
2021/07/02 00:42:12;;;;;;;2.50;1.50;;;21.20;99.90;;;;;;5115156;28;20175;-70
2021/07/02 00:44:43;;;;;;;1.60;1.50;;;21.10;99.90;;;;;;5115883;28;20182;-70
2021/07/02 00:47:10;;;;;;;2.07;1.80;;;21.10;99.90;;;;;;5115863;28;20188;-67
2021/07/02 00:49:36;;;;;;;2.40;1.87;;;21.10;99.90;;;;;;5115806;28;20488;-68
2021/07/02 00:52:04;;;;;;;1.60;1.50;;;21.10;99.90;;;;;;5114413;28;21040;-70
2021/07/02 00:54:29;;;;;;;1.60;1.50;;;21.10;99.90;;;;;;5134546;27;20474;-67
2021/07/02 00:56:55;;;;;;;2.07;1.90;;;21.00;99.90;;;;;;5136050;27;20491;-70
2021/07/02 00:59:21;;;;;;;2.97;2.13;;;21.00;99.90;;;;;;5136190;27;20206;-67
2021/07/02 01:01:47;;;;;;;1.70;1.60;;;21.00;99.90;;;;;;5136534;27;20195;-70
2021/07/02 01:04:12;;;;;;;2.73;2.03;;;21.00;99.90;;;;;;5117756;27;20179;-68
2021/07/02 01:06:38;;;;;;;2.00;1.80;;;21.00;99.90;;;;;;5117728;27;20211;-70
2021/07/02 01:09:05;;;;;;;4.27;1.93;;;21.00;99.90;;;;;;5135934;27;20171;-69
2021/07/02 01:11:33;;;;;;;2.17;1.97;;;21.00;99.90;;;;;;5117349;27;20213;-68
2021/07/02 01:13:58;;;;;;;1.70;1.60;;;21.00;99.90;;;;;;5135797;27;20473;-68
2021/07/02 01:16:24;;;;;;;2.10;2.00;;;21.00;99.90;;;;;;5136140;27;20922;-68
2021/07/02 01:18:50;;;;;;;2.27;2.07;;;20.90;99.90;;;;;;5135799;27;20628;-68
2021/07/02 01:21:16;;;;;;;3.90;2.53;;;20.90;99.90;;;;;;5117406;27;20205;-67
2021/07/02 01:23:41;;;;;;;3.83;2.10;;;20.90;99.90;;;;;;5135725;27;20467;-70
2021/07/02 01:26:08;;;;;;;5.93;2.77;;;20.90;99.90;;;;;;5117257;27;20234;-67
2021/07/02 01:28:34;;;;;;;3.80;2.50;;;20.80;99.90;;;;;;5135666;27;20710;-68
2021/07/02 01:30:59;;;;;;;3.03;2.60;;;20.80;99.90;;;;;;5135704;27;20541;-70
2021/07/02 01:33:25;;;;;;;3.50;2.60;;;20.70;99.90;;;;;;5135479;27;20175;-70
2021/07/02 01:35:50;;;;;;;2.27;2.07;;;20.70;99.90;;;;;;5135348;27;20205;-68
2021/07/02 01:38:17;;;;;;;3.20;2.70;;;20.70;99.90;;;;;;5135474;27;20540;-67
2021/07/02 01:40:42;;;;;;;3.37;2.60;;;20.60;99.90;;;;;;5135507;27;20247;-69
2021/07/02 01:43:08;;;;;;;4.90;3.07;;;20.60;99.90;;;;;;5135224;27;20407;-68
2021/07/02 01:45:34;;;;;;;2.47;2.27;;;20.50;99.90;;;;;;5135188;27;20202;-70
2021/07/02 01:47:59;;;;;;;3.07;2.77;;;20.40;99.90;;;;;;5116880;27;20189;-70
2021/07/02 01:50:26;;;;;;;4.13;3.10;;;20.40;99.90;;;;;;5116772;27;20297;-67
2021/07/02 01:52:53;;;;;;;2.93;2.73;;;20.40;99.90;;;;;;5135016;27;20577;-70
2021/07/02 01:55:19;;;;;;;3.30;3.00;;;20.30;99.90;;;;;;5135257;27;20481;-68
2021/07/02 01:57:45;;;;;;;3.53;2.50;;;20.30;99.90;;;;;;5116670;27;20456;-67
2021/07/02 02:00:11;;;;;;;2.67;2.30;;;20.20;99.90;;;;;;5134844;27;20947;-67
2021/07/02 02:02:37;;;;;;;2.97;2.70;;;20.20;99.90;;;;;;5134973;27;20413;-70
2021/07/02 02:05:03;;;;;;;2.50;2.30;;;20.20;99.90;;;;;;5116529;27;20453;-70
2021/07/02 02:07:29;;;;;;;4.57;2.80;;;20.20;99.90;;;;;;5134917;27;20522;-70
2021/07/02 02:09:55;;;;;;;2.63;2.43;;;20.10;99.90;;;;;;5134829;27;20465;-70
2021/07/02 02:12:21;;;;;;;3.20;2.67;;;20.10;99.90;;;;;;5134931;27;20178;-68
2021/07/02 02:14:46;;;;;;;2.53;2.30;;;20.00;99.90;;;;;;5134842;27;20687;-67
2021/07/02 02:17:12;;;;;;;2.37;2.17;;;20.00;99.90;;;;;;5135111;27;20536;-68
2021/07/02 02:19:38;;;;;;;4.00;2.40;;;20.00;99.90;;;;;;5134804;27;20180;-70
2021/07/02 02:22:04;;;;;;;5.87;2.20;;;20.00;99.90;;;;;;5116320;28;20208;-68
2021/07/02 02:24:30;;;;;;;3.07;2.50;;;19.90;99.90;;;;;;5134765;27;20248;-68
2021/07/02 02:26:55;;;;;;;2.70;2.50;;;19.90;99.90;;;;;;5116289;27;20457;-68
2021/07/02 02:29:22;;;;;;;2.20;2.00;;;19.80;99.90;;;;;;5134758;27;20558;-70
2021/07/02 02:31:48;;;;;;;2.40;2.20;;;19.80;99.90;;;;;;5135033;27;20643;-68
2021/07/02 02:34:14;;;;;;;2.47;2.27;;;19.70;99.90;;;;;;5134573;28;20556;-70
2021/07/02 02:36:40;;;;;;;2.60;2.20;;;19.70;99.90;;;;;;5134999;27;20204;-68
2021/07/02 02:39:06;;;;;;;2.70;2.47;;;19.70;99.90;;;;;;5134506;28;20681;-69
2021/07/02 02:41:32;;;;;;;2.30;2.10;;;19.70;99.90;;;;;;5116230;28;20541;-68
2021/07/02 02:43:58;;;;;;;6.80;2.73;;;19.70;99.90;;;;;;5116096;28;20413;-70
2021/07/02 02:46:24;;;;;;;2.50;2.30;;;19.70;99.90;;;;;;5116200;28;21004;-68
2021/07/02 02:48:50;;;;;;;2.23;2.03;;;19.70;99.90;;;;;;5116135;28;20664;-70
2021/07/02 02:51:15;;;;;;;4.57;2.20;;;19.70;99.90;;;;;;5116097;28;20204;-70
2021/07/02 02:53:41;;;;;;;3.33;2.80;;;19.70;99.90;;;;;;5134430;27;20568;-67
2021/07/02 02:56:07;;;;;;;2.30;1.70;;;19.70;99.90;;;;;;5120247;27;20654;-71
2021/07/02 02:58:32;;;;;;;2.37;1.90;;;19.70;99.90;;;;;;5120176;27;20184;-70
2021/07/02 03:00:58;;;;;;;2.83;1.97;;;19.60;99.90;;;;;;5120122;27;20209;-67
2021/07/02 03:03:23;;;;;;;2.03;1.90;;;19.60;99.90;;;;;;5120095;27;20693;-68
2021/07/02 03:05:49;;;;;;;2.03;1.93;;;19.60;99.90;;;;;;5120025;27;20200;-70
2021/07/02 03:08:15;;;;;;;2.53;1.77;;;19.50;99.90;;;;;;5120043;27;20518;-70
2021/07/02 03:10:40;;;;;;;2.83;1.83;;;19.50;99.90;;;;;;5119793;27;20704;-71
2021/07/02 03:13:06;;;;;;;3.43;2.20;;;19.50;99.90;;;;;;5119864;27;20410;-70
2021/07/02 03:15:32;;;;;;;1.70;1.60;;;19.50;99.90;;;;;;5138281;27;20227;-71
2021/07/02 03:17:57;;;;;;;2.93;1.77;;;19.50;99.90;;;;;;5138183;27;20267;-67
2021/07/02 03:20:23;;;;;;;2.77;2.57;;;19.50;99.90;;;;;;5119683;27;20230;-67
2021/07/02 03:22:48;;;;;;;2.20;2.00;;;19.50;99.90;;;;;;5138358;27;20194;-70
2021/07/02 03:25:14;;;;;;;2.50;1.87;;;19.50;99.90;;;;;;5138073;27;20207;-70
2021/07/02 03:27:40;;;;;;;2.20;1.70;;;19.50;99.90;;;;;;5138026;27;20189;-68
2021/07/02 03:30:08;;;;;;;2.63;1.90;;;19.50;99.90;;;;;;5119445;27;20207;-68
2021/07/02 03:32:34;;;;;;;2.10;2.00;;;19.60;99.90;;;;;;5119400;27;20416;-68
2021/07/02 03:35:00;;;;;;;1.70;1.60;;;19.50;99.90;;;;;;5119309;27;20830;-70
2021/07/02 03:37:26;;;;;;;3.67;2.37;;;19.60;99.90;;;;;;5119432;27;20177;-68
2021/07/02 03:39:51;;;;;;;2.67;2.07;;;19.60;99.90;;;;;;5119149;27;20442;-68
2021/07/02 03:42:17;;;;;;;2.30;2.10;;;19.60;99.90;;;;;;5137973;27;20174;-68
2021/07/02 03:44:43;;;;;;;4.00;2.23;;;19.60;99.90;;;;;;5137595;27;20243;-70
2021/07/02 03:47:09;;;;;;;2.73;2.43;;;19.60;99.90;;;;;;5119240;27;20177;-68
2021/07/02 03:49:34;;;;;;;2.63;2.37;;;19.60;99.90;;;;;;5137610;27;20409;-70
2021/07/02 03:52:00;;;;;;;1.90;1.80;;;19.70;99.90;;;;;;5137950;27;20206;-68
2021/07/02 03:54:26;;;;;;;2.63;2.20;;;19.70;99.90;;;;;;5137464;27;20224;-71
2021/07/02 03:59:35;;;;;;;4.03;2.20;;;19.70;99.90;;;;;;5137468;27;20161;-70
2021/07/02 04:02:01;;;;;;;2.67;1.90;;;19.60;99.90;;;;;;5137228;27;20430;-67
2021/07/02 04:04:26;;;;;;;1.77;1.67;;;19.60;99.90;;;;;;5137465;27;20638;-68
2021/07/02 04:06:52;;;;;;;2.27;2.00;;;19.60;99.90;;;;;;5136231;27;20224;-68
2021/07/02 04:09:17;;;;;;;2.53;2.33;;;19.50;99.90;;;;;;5137093;27;20181;-71
2021/07/02 04:11:43;;;;;;;2.60;2.40;;;19.60;99.90;;;;;;5137430;27;20209;-70
2021/07/02 04:14:09;;;;;;;3.70;2.33;;;19.60;99.90;;;;;;5136879;27;20246;-70
2021/07/02 04:16:34;;;;;;;4.07;2.67;;;19.60;99.90;;;;;;5137388;27;20235;-71
2021/07/02 04:19:00;;;;;;;2.73;2.20;;;19.60;99.90;;;;;;5118573;27;20174;-68
2021/07/02 04:21:26;;;;;;;2.60;2.40;;;19.60;99.90;;;;;;5137360;27;20210;-68
2021/07/02 04:23:52;;;;;;;2.97;2.57;;;19.60;99.90;;;;;;5136914;27;20178;-70
2021/07/02 04:26:17;;;;;;;2.83;2.17;;;19.60;99.90;;;;;;5137075;27;20207;-68
2021/07/02 04:28:43;;;;;;;3.20;2.90;;;19.60;99.90;;;;;;5136876;27;20540;-71
2021/07/02 04:31:09;;;;;;;2.90;2.60;;;19.60;99.90;;;;;;5136528;27;20197;-71
2021/07/02 04:33:34;;;;;;;2.50;2.30;;;19.60;99.90;;;;;;5135319;27;20455;-68
2021/07/02 04:36:00;;;;;;;2.60;2.40;;;19.70;99.90;;;;;;5135620;27;20200;-71
2021/07/02 04:38:26;;;;;;;2.60;2.40;;;19.70;99.90;;;;;;5135985;27;20261;-71
2021/07/02 04:40:51;;;;;;;3.13;2.90;;;19.70;99.90;;;;;;5136535;27;20202;-68
2021/07/02 04:43:17;;;;;;;2.43;2.23;;;19.80;99.90;;;;;;5136553;27;20200;-68
2021/07/02 04:45:43;;;;;;;2.80;2.60;;;19.90;99.90;;;;;;5136497;27;20570;-69
2021/07/02 04:48:08;;;;;;;2.77;2.37;;;19.90;99.90;;;;;;5136384;27;20182;-68
2021/07/02 04:50:34;;;;;;;2.50;2.07;;;20.00;99.90;;;;;;5135801;27;20223;-67
2021/07/02 04:53:00;;;;;;;2.50;2.30;;;20.00;99.90;;;;;;5117522;27;20313;-70
2021/07/02 04:55:26;;;;;;;2.70;2.50;;;20.10;99.90;;;;;;5113143;27;20245;-71
2021/07/02 04:57:52;;;;;;;2.80;2.37;;;20.10;99.90;;;;;;5115460;27;20542;-69
2021/07/02 05:00:18;;;;;;;2.60;2.40;;;20.10;99.90;;;;;;5136000;27;20549;-71
2021/07/02 05:02:43;;;;;;;4.87;2.27;;;20.20;99.90;;;;;;5136174;27;20539;-68
2021/07/02 05:05:10;;;;;;;2.30;2.10;;;20.20;99.90;;;;;;5116924;27;20450;-68
2021/07/02 05:07:36;;;;;;;2.50;2.20;;;20.20;99.90;;;;;;5134419;27;20178;-68
2021/07/02 05:10:06;;;;;;;4.30;2.30;;;20.20;99.90;;;;;;5136023;27;20422;-71
2021/07/02 05:12:32;;;;;;;2.07;1.97;;;20.20;99.90;;;;;;5134410;27;20988;-68
2021/07/02 05:14:59;;;;;;;2.30;1.90;;;20.30;99.90;;;;;;5133832;27;20973;-68
2021/07/02 05:17:25;;;;;;;2.60;2.10;;;20.30;99.90;;;;;;5133304;27;20395;-70
2021/07/02 05:19:50;;;;;;;2.00;1.90;;;20.30;99.90;;;;;;5115009;27;20419;-68
2021/07/02 05:22:18;;;;;;;2.30;2.10;;;20.40;99.90;;;;;;5133201;27;20753;-71
2021/07/02 05:24:44;;;;;;;2.50;2.17;;;20.50;99.90;;;;;;5115667;27;20426;-68
2021/07/02 05:27:10;;;;;;;2.63;1.90;;;20.50;99.90;;;;;;5133911;27;20488;-70
2021/07/02 05:29:35;;;;;;;2.50;2.30;;;20.60;99.90;;;;;;5134504;27;20706;-70
2021/07/02 05:32:01;;;;;;;4.73;2.20;;;20.80;99.90;;;;;;5134564;27;20250;-70
2021/07/02 05:34:27;;;;;;;5.80;4.77;;;20.90;99.90;;;;;;5135241;27;20198;-70
2021/07/02 05:36:52;;;;;;;5.43;4.47;;;21.00;99.90;;;;;;5135424;27;20206;-68
2021/07/02 05:39:18;;;;;;;2.50;2.30;;;21.20;99.90;;;;;;5126933;27;20232;-70
2021/07/02 05:41:43;;;;;;;2.20;2.00;;;21.30;99.90;;;;;;5114689;28;20207;-70
2021/07/02 05:44:09;;;;;;;2.60;2.03;;;21.40;99.90;;;;;;5130548;27;20204;-70
2021/07/02 05:46:35;;;;;;;2.20;2.00;;;21.50;99.90;;;;;;5135444;27;20203;-69
2021/07/02 05:49:02;;;;;;;3.50;2.30;;;21.60;99.90;;;;;;5132721;27;20251;-71
2021/07/02 05:51:28;;;;;;;2.43;2.20;;;21.70;99.90;;;;;;5112253;27;20199;-69
2021/07/02 05:53:53;;;;;;;2.50;2.30;;;21.80;99.90;;;;;;5114021;27;20991;-68
2021/07/02 05:56:27;;;;;;;1.93;1.77;;;21.90;99.90;;;;;;5133996;27;20306;-68
2021/07/02 05:58:53;;;;;;;1.80;1.70;;;21.90;99.90;;;;;;5113954;27;20424;-68
2021/07/02 06:01:19;;;;;;;2.80;2.20;;;22.00;99.90;;;;;;5106348;27;21041;-71
2021/07/02 06:03:44;;;;;;;2.23;2.07;;;22.10;99.90;;;;;;5128850;27;20201;-71
2021/07/02 06:06:10;;;;;;;2.37;2.17;;;22.30;99.90;;;;;;5131812;27;20215;-71
2021/07/02 06:08:35;;;;;;;2.20;1.83;;;22.40;99.90;;;;;;5130980;27;20239;-71
2021/07/02 06:11:01;;;;;;;2.40;2.20;;;22.60;99.90;;;;;;5130251;27;20596;-71
2021/07/02 06:13:27;;;;;;;2.10;1.90;;;22.70;99.90;;;;;;5128875;27;20211;-72
2021/07/02 06:15:53;;;;;;;2.30;2.10;;;22.80;99.90;;;;;;5114733;27;20207;-70
2021/07/02 06:18:19;;;;;;;2.63;2.03;;;22.90;99.90;;;;;;5108266;27;20856;-68
2021/07/02 06:20:44;;;;;;;3.10;2.00;;;23.00;99.90;;;;;;5111332;27;20199;-68
2021/07/02 06:23:10;;;;;;;2.50;2.13;;;23.10;99.90;;;;;;5132222;27;20179;-68
2021/07/02 06:25:35;;;;;;;2.10;1.90;;;23.10;99.90;;;;;;5132908;27;20205;-71
2021/07/02 06:28:01;;;;;;;2.80;1.90;;;23.20;99.90;;;;;;5129299;27;20651;-70
2021/07/02 06:30:27;;;;;;;2.67;1.80;;;23.30;99.90;;;;;;5130602;27;20251;-70
2021/07/02 06:32:52;;;;;;;2.00;1.90;;;23.30;99.90;;;;;;5108146;28;20197;-70
2021/07/02 06:35:18;;;;;;;4.77;1.80;;;23.40;99.90;;;;;;5105064;28;20584;-68
2021/07/02 06:37:49;;;;;;;1.90;1.80;;;23.40;99.90;;;;;;5125236;28;20257;-68
2021/07/02 06:40:15;;;;;;;2.00;1.90;;;23.50;99.90;;;;;;5106139;28;20571;-71
2021/07/02 06:42:41;;;;;;;2.03;1.90;;;23.60;99.90;;;;;;5126849;28;20461;-71
2021/07/02 06:45:07;;;;;;;2.53;2.33;;;23.60;99.90;;;;;;5111292;28;20939;-71
2021/07/02 06:47:33;;;;;;;2.23;2.03;;;23.70;99.90;;;;;;5128743;28;20502;-68
2021/07/02 06:49:59;;;;;;;1.93;1.83;;;23.70;99.90;;;;;;5121243;28;20592;-71
2021/07/02 06:52:24;;;;;;;2.00;1.90;;;23.80;99.90;;;;;;5128411;28;20212;-71
2021/07/02 06:54:50;;;;;;;3.17;1.80;;;23.80;99.90;;;;;;5106097;27;20204;-71
2021/07/02 06:57:16;;;;;;;2.50;2.30;;;23.80;99.90;;;;;;5106714;28;20679;-69
2021/07/02 06:59:42;;;;;;;2.50;2.10;;;23.90;99.90;;;;;;5125585;28;20204;-73
2021/07/02 07:02:12;;;;;;;1.83;1.73;;;23.90;99.90;;;;;;5110712;28;20433;-70
2021/07/02 07:04:38;;;;;;;1.90;1.80;;;23.90;99.90;;;;;;5105427;28;21397;-72
2021/07/02 07:07:05;;;;;;;2.10;2.00;;;23.90;99.90;;;;;;5104462;28;20876;-70
2021/07/02 07:09:31;;;;;;;2.50;2.30;;;24.00;99.90;;;;;;5123122;28;20172;-72
2021/07/02 07:11:58;;;;;;;2.20;2.00;;;24.00;99.90;;;;;;5107066;28;20564;-71
2021/07/02 07:14:24;;;;;;;2.65;2.45;;;24.00;99.90;;;;;;5128047;28;20438;-69
2021/07/02 07:16:49;;;;;;;2.90;1.80;;;24.10;99.90;;;;;;5127617;28;20204;-68
2021/07/02 07:19:15;;;;;;;2.70;2.10;;;24.10;99.90;;;;;;5126047;28;20196;-71
2021/07/02 07:21:41;;;;;;;2.27;2.10;;;24.20;99.90;;;;;;5127215;28;20203;-70
2021/07/02 07:24:07;;;;;;;3.17;1.97;;;24.30;99.90;;;;;;5127046;28;20452;-73
2021/07/02 07:26:33;;;;;;;3.20;2.20;;;24.30;99.90;;;;;;5103448;28;20543;-69
2021/07/02 07:28:58;;;;;;;2.37;2.10;;;24.40;99.90;;;;;;5122047;28;20178;-72
2021/07/02 07:31:24;;;;;;;2.30;2.10;;;24.40;99.90;;;;;;5106985;28;20281;-68
2021/07/02 07:33:51;;;;;;;5.73;2.10;;;24.50;99.90;;;;;;5124533;28;20212;-72
2021/07/02 07:36:20;;;;;;;1.90;1.80;;;24.50;99.90;;;;;;5125239;27;20213;-71
2021/07/02 07:38:45;;;;;;;2.60;2.40;;;24.60;99.90;;;;;;5126890;28;20417;-69
2021/07/02 07:41:11;;;;;;;3.30;2.50;;;24.60;99.90;;;;;;5129548;27;20929;-69
2021/07/02 07:43:37;;;;;;;2.70;2.50;;;24.60;99.90;;;;;;5134002;27;20209;-69
2021/07/02 07:46:05;;;;;;;3.10;2.40;;;24.70;99.90;;;;;;5131923;27;20206;-69
2021/07/02 07:48:31;;;;;;;2.50;2.33;;;24.80;99.90;;;;;;5112797;27;20186;-67
2021/07/02 07:51:13;;;;;;;2.20;2.00;;;24.80;99.90;;;;;;5129341;27;20473;-68
2021/07/02 07:53:39;;;;;;;2.83;2.57;;;24.80;99.90;;;;;;5133853;27;20280;-71
2021/07/02 07:56:05;;;;;;;3.30;2.20;;;24.90;99.90;;;;;;5129395;27;20446;-71
2021/07/02 07:58:30;;;;;;;2.50;2.30;;;24.90;99.90;;;;;;5111821;27;20239;-71
2021/07/02 08:00:56;;;;;;;5.60;2.30;;;25.00;99.90;;;;;;5110502;27;20251;-68
2021/07/02 08:03:21;;;;;;;2.80;2.23;;;25.00;99.90;;;;;;5130919;27;20265;-71
2021/07/02 08:05:47;;;;;;;2.37;2.17;;;25.00;99.90;;;;;;5129209;27;20250;-68
2021/07/02 08:08:16;;;;;;;2.63;2.43;;;25.00;99.90;;;;;;5128875;27;20221;-68
2021/07/02 08:10:42;;;;;;;2.30;2.10;;;25.10;99.90;;;;;;5128992;27;20566;-71
2021/07/02 08:13:08;;;;;;;2.60;2.40;;;25.10;99.90;;;;;;5130058;27;20504;-69
2021/07/02 08:15:34;;;;;;;2.17;2.00;;;25.10;99.90;;;;;;5126639;27;20584;-68
2021/07/02 08:17:59;;;;;;;2.23;2.03;;;25.20;99.90;;;;;;5111474;27;20785;-71
2021/07/02 08:20:25;;;;;;;3.67;2.10;;;25.20;99.90;;;;;;5111894;27;20412;-68
2021/07/02 08:22:51;;;;;;;3.10;2.10;;;25.30;99.90;;;;;;5130169;27;20408;-71
2021/07/02 08:25:17;;;;;;;3.17;2.43;;;25.40;99.90;;;;;;5111876;27;20654;-68
2021/07/02 08:30:27;;;;;;;2.00;1.77;;;25.50;99.90;;;;;;5129696;27;20217;-68
2021/07/02 08:32:52;;;;;;;1.90;1.80;;;25.60;99.90;;;;;;5105002;27;20429;-69
2021/07/02 08:35:22;;;;;;;2.33;2.20;;;25.60;99.90;;;;;;5106720;27;20225;-68
2021/07/02 08:37:52;;;;;;;2.00;1.80;;;25.70;99.90;;;;;;5111341;27;20399;-68
2021/07/02 08:40:19;;;;;;;3.65;2.20;;;25.70;99.90;;;;;;5116481;27;20429;-72
2021/07/02 08:42:44;;;;;;;3.10;2.17;;;25.80;99.90;;;;;;5107340;27;20187;-71
2021/07/02 08:45:10;;;;;;;2.00;1.90;;;25.80;99.90;;;;;;5109199;27;20986;-72
2021/07/02 08:47:36;;;;;;;2.17;2.00;;;25.80;99.90;;;;;;5112065;27;20176;-72
2021/07/02 08:50:03;;;;;;;3.10;2.10;;;25.80;99.90;;;;;;5109002;27;20453;-69
2021/07/02 08:52:29;;;;;;;2.00;1.73;;;25.90;99.90;;;;;;5126958;27;20231;-72
2021/07/02 08:54:55;;;;;;;4.27;2.13;;;25.90;99.90;;;;;;5110965;27;20482;-72
2021/07/02 08:57:21;;;;;;;2.40;2.20;;;26.00;99.90;;;;;;5106806;27;20418;-67
2021/07/02 08:59:46;;;;;;;2.27;2.00;;;26.00;99.90;;;;;;5119101;27;20184;-67
2021/07/02 09:02:31;;;;;;;3.20;2.20;;;26.00;99.90;;;;;;5126825;27;20687;-66
2021/07/02 09:04:58;;;;;;;2.97;2.30;;;26.00;99.90;;;;;;5121333;27;20183;-66
2021/07/02 09:07:24;;;;;;;2.60;2.40;;;26.00;99.90;;;;;;5131191;27;20501;-70
2021/07/02 09:09:57;;;;;;;3.13;2.30;;;26.00;99.90;;;;;;5108594;27;20465;-66
2021/07/02 09:12:35;;;;;;;2.33;2.13;;;26.00;99.90;;;;;;5133157;27;20415;-66
2021/07/02 09:15:02;;;;;;;3.20;2.60;;;26.00;99.90;;;;;;5129343;27;20951;-73
2021/07/02 09:17:27;;;;;;;2.83;2.00;;;26.00;99.90;;;;;;5128726;27;20426;-71
2021/07/02 09:20:14;;;;;;;2.30;2.10;;;26.00;99.90;;;;;;5108144;27;20419;-68
2021/07/02 09:22:58;;;;;;;2.33;2.13;;;26.00;99.90;;;;;;5106898;27;20422;-72
2021/07/02 09:25:30;;;;;;;3.10;2.80;;;26.00;99.90;;;;;;5129263;27;20446;-72
2021/07/02 09:28:01;;;;;;;2.43;2.20;;;26.10;99.90;;;;;;5130207;27;20575;-72
2021/07/02 09:30:33;;;;;;;2.50;2.30;;;26.10;99.90;;;;;;5129904;27;20900;-72
2021/07/02 09:33:01;;;;;;;2.80;2.57;;;26.20;99.90;;;;;;5130957;27;20423;-68
2021/07/02 09:35:44;;;;;;;2.77;2.57;;;26.20;99.90;;;;;;5102222;27;20474;-71
2021/07/02 09:38:10;;;;;;;3.07;2.47;;;26.20;99.90;;;;;;5128266;27;20428;-68
2021/07/02 09:40:37;;;;;;;2.33;2.23;;;26.20;99.90;;;;;;5113542;27;20465;-71
2021/07/02 09:43:07;;;;;;;3.43;2.00;;;26.20;99.90;;;;;;5113245;27;20186;-72
2021/07/02 09:45:35;;;;;;;2.53;2.33;;;26.20;99.90;;;;;;5126165;27;20462;-68
2021/07/02 09:48:09;;;;;;;2.10;1.93;;;26.20;99.90;;;;;;5128916;27;20478;-71
2021/07/02 09:50:37;;;;;;;2.47;2.00;;;26.20;99.90;;;;;;5129606;27;20454;-68
2021/07/02 09:53:08;;;;;;;2.70;2.47;;;26.20;99.90;;;;;;5127494;27;20486;-71
2021/07/02 09:55:43;;;;;;;2.57;2.37;;;26.20;99.90;;;;;;5118227;27;20486;-68
2021/07/02 09:58:21;;;;;;;2.23;2.03;;;26.20;99.90;;;;;;5108267;27;20438;-68
2021/07/02 10:00:52;;;;;;;2.83;1.97;;;26.20;99.90;;;;;;5107196;27;20797;-72
2021/07/02 10:03:24;;;;;;;1.67;1.57;;;26.20;99.90;;;;;;5121290;27;20743;-67
2021/07/02 10:05:58;;;;;;;2.40;1.93;;;26.20;99.90;;;;;;5122144;27;20454;-71
2021/07/02 10:08:33;;;;;;;2.90;2.37;;;26.20;99.90;;;;;;5105993;27;20422;-67
2021/07/02 10:11:00;;;;;;;2.47;2.27;;;26.20;99.90;;;;;;5100059;27;20533;-68
2021/07/02 10:13:31;;;;;;;2.63;2.33;;;26.20;99.90;;;;;;5106568;27;20856;-71
2021/07/02 10:15:58;;;;;;;2.30;2.20;;;26.30;99.90;;;;;;5120124;27;20922;-68
2021/07/02 10:18:27;;;;;;;2.73;2.40;;;26.30;99.90;;;;;;5106131;27;20534;-72
2021/07/02 10:20:58;;;;;;;2.57;2.37;;;26.30;99.90;;;;;;5124322;27;20443;-68
2021/07/02 10:23:26;;;;;;;2.47;2.27;;;26.30;99.90;;;;;;5127997;27;20423;-72
2021/07/02 10:25:53;;;;;;;2.50;2.30;;;26.40;99.90;;;;;;5126872;27;21052;-72
2021/07/02 10:28:22;;;;;;;4.33;2.30;;;26.40;99.90;;;;;;5127316;27;20418;-68
2021/07/02 10:30:48;;;;;;;2.17;1.97;;;26.50;99.90;;;;;;5129458;27;20476;-68
2021/07/02 10:33:15;;;;;;;2.23;2.10;;;26.50;99.90;;;;;;5127896;28;20873;-72
2021/07/02 10:35:47;;;;;;;2.73;2.10;;;26.60;99.90;;;;;;5107275;28;20539;-71
2021/07/02 10:38:12;;;;;;;1.87;1.77;;;26.60;99.90;;;;;;5109860;28;20427;-71
2021/07/02 10:40:43;;;;;;;2.20;1.80;;;26.60;99.90;;;;;;5127163;27;20462;-68
2021/07/02 10:43:14;;;;;;;2.10;2.00;;;26.60;99.90;;;;;;5122957;28;20216;-67
2021/07/02 10:46:08;;;;;;;1.93;1.83;;;26.70;99.90;;;;;;5099413;28;20474;-72
2021/07/02 10:48:53;;;;;;;2.60;1.80;;;26.70;99.90;;;;;;5128163;28;20431;-72
2021/07/02 10:51:49;;;;;;;2.13;1.80;;;26.70;99.90;;;;;;5129441;28;20509;-69
2021/07/02 10:54:18;;;;;;;1.97;1.87;;;26.70;99.90;;;;;;5112735;28;20514;-70
2021/07/02 10:56:56;;;;;;;1.90;1.80;;;26.70;99.90;;;;;;5105208;28;20482;-70
2021/07/02 10:59:42;;;;;;;2.10;2.00;;;26.60;99.90;;;;;;5121535;28;20441;-69
2021/07/02 11:02:14;;;;;;;1.70;1.60;;;26.60;99.90;;;;;;5124455;28;20431;-70
2021/07/02 11:04:43;;;;;;;1.70;1.60;;;26.60;99.90;;;;;;5106068;28;20454;-71
2021/07/02 11:07:11;;;;;;;1.97;1.87;;;26.60;99.90;;;;;;5102658;28;20466;-72
2021/07/02 11:09:53;;;;;;;2.93;2.53;;;26.70;99.90;;;;;;5126199;28;20542;-70
2021/07/02 11:12:22;;;;;;;2.13;1.93;;;26.70;99.90;;;;;;5106379;28;20430;-73
2021/07/02 11:15:03;;;;;;;2.00;1.90;;;26.70;99.90;;;;;;5118821;27;20486;-72
2021/07/02 11:17:35;;;;;;;2.27;2.07;;;26.70;99.90;;;;;;5116656;27;20427;-71
2021/07/02 11:20:07;;;;;;;2.43;2.27;;;26.70;99.90;;;;;;5109785;27;20445;-68
2021/07/02 11:22:47;;;;;;;1.90;1.80;;;26.70;99.90;;;;;;5133795;27;20789;-71
2021/07/02 11:27:53;;;;;;;4.83;2.40;;;26.60;99.90;;;;;;5134103;27;20428;-70
2021/07/02 11:30:22;;;;;;;2.60;2.40;;;26.60;99.90;;;;;;5108048;27;20875;-72
2021/07/02 11:32:52;;;;;;;2.20;1.67;;;26.60;99.90;;;;;;5130549;27;20435;-67
2021/07/02 11:35:22;;;;;;;2.73;1.90;;;26.60;99.90;;;;;;5125797;27;20805;-73
2021/07/02 11:38:03;;;;;;;1.93;1.80;;;26.40;99.90;;;;;;5107199;27;20431;-69
2021/07/02 11:40:40;;;;;;;1.77;1.67;;;26.30;99.90;;;;;;5126763;27;20456;-72
2021/07/02 11:43:08;;;;;;;1.83;1.73;;;26.20;99.90;;;;;;5130907;27;20445;-69
2021/07/02 11:45:45;;;;;;;3.00;1.97;;;26.10;99.90;;;;;;5129201;27;20546;-70
2021/07/02 11:48:20;;;;;;;2.80;2.03;;;26.00;99.90;;;;;;5113294;27;20442;-69
2021/07/02 11:51:00;;;;;;;2.47;2.27;;;25.90;99.90;;;;;;5112000;27;20554;-71
2021/07/02 11:53:53;;;;;;;3.10;2.90;;;25.90;99.90;;;;;;5105959;28;20825;-72
2021/07/02 11:56:24;;;;;;;3.77;3.00;;;25.90;99.90;;;;;;5105416;28;20502;-70
2021/07/02 11:58:59;;;;;;;2.53;2.33;;;25.80;99.90;;;;;;5107041;28;20416;-68
2021/07/02 12:01:27;;;;;;;2.30;2.10;;;25.80;99.90;;;;;;5109180;28;20454;-69
2021/07/02 12:03:58;;;;;;;2.00;1.90;;;25.80;99.90;;;;;;5113336;28;20404;-68
2021/07/02 12:06:27;;;;;;;1.80;1.70;;;25.80;99.90;;;;;;5103286;28;20476;-68
2021/07/02 12:09:05;;;;;;;2.53;2.27;;;25.80;99.90;;;;;;5109254;28;20433;-68
2021/07/02 12:11:46;;;;;;;2.10;1.90;;;25.80;99.90;;;;;;5103981;28;21079;-69
2021/07/02 12:14:19;;;;;;;3.83;2.10;;;25.90;99.90;;;;;;5094831;28;20574;-69
2021/07/02 12:16:49;;;;;;;2.47;2.27;;;25.90;99.90;;;;;;5107399;28;20467;-69
2021/07/02 12:19:17;;;;;;;4.33;2.57;;;26.00;99.90;;;;;;5107096;28;20514;-71
2021/07/02 12:21:50;;;;;;;2.83;2.63;;;26.00;99.90;;;;;;5108127;28;20613;-70
2021/07/02 12:24:22;;;;;;;2.70;2.50;;;26.00;99.90;;;;;;5107254;28;20466;-68
2021/07/02 12:27:03;;;;;;;3.10;2.50;;;26.10;99.90;;;;;;5106275;28;20518;-68
2021/07/02 12:29:30;;;;;;;2.93;2.40;;;26.10;99.90;;;;;;5097895;28;20413;-69
2021/07/02 12:31:59;;;;;;;2.00;1.90;;;26.10;99.90;;;;;;5104477;28;20462;-69
2021/07/02 12:34:38;;;;;;;2.60;2.23;;;26.10;99.90;;;;;;5099571;28;21000;-69
2021/07/02 12:37:09;;;;;;;2.27;1.97;;;26.10;99.90;;;;;;5112718;28;20455;-70
2021/07/02 12:39:41;;;;;;;2.07;1.87;;;26.10;99.90;;;;;;5112652;28;20527;-71
2021/07/02 12:42:32;;;;;;;2.00;1.90;;;26.20;99.90;;;;;;5112320;28;20470;-70
2021/07/02 12:44:59;;;;;;;2.03;1.90;;;26.30;99.90;;;;;;5110784;28;20539;-69
2021/07/02 12:47:30;;;;;;;1.80;1.70;;;26.30;99.90;;;;;;5107252;28;20424;-71
2021/07/02 12:50:00;;;;;;;1.67;1.57;;;26.30;99.90;;;;;;5105639;28;21175;-68
2021/07/02 12:55:18;;;;;;;2.10;1.57;;;26.50;99.90;;;;;;5131200;27;20494;-69
2021/07/02 12:57:49;;;;;;;1.10;1.00;;;26.50;99.90;;;;;;5129150;27;20542;-71
2021/07/02 13:00:24;;;;;;;1.60;1.30;;;26.50;99.90;;;;;;5128216;27;20463;-69
2021/07/02 13:02:58;;;;;;;1.90;1.53;;;26.50;99.90;;;;;;5113403;27;20434;-68